Time;durP1;ratioP1;P1;durP2;ratioP2;P2;SDS_P1;SDS_P2;PMS_P1;PMS_P2;Temp;Humidity;BMP_temperature;BMP_pressure;BME280_temperature;BME280_humidity;BME280_pressure;Samples;Min_cycle;Max_cycle;Signal;HPM_P1;HPM_P2
2021/10/30 00:04:53;;;;;;;0.00;0.00;;;;;;;10.29;87.45;100867.81;10301844;28;20110;-65
2021/10/30 00:09:53;;;;;;;0.10;0.10;;;;;;;10.23;87.65;100875.56;10318832;28;20025;-65
2021/10/30 00:14:54;;;;;;;0.03;0.03;;;;;;;10.18;87.40;100873.34;10306805;28;20018;-65
2021/10/30 00:19:54;;;;;;;0.10;0.10;;;;;;;10.12;87.55;100882.81;10319159;28;20030;-65
2021/10/30 00:24:55;;;;;;;0.10;0.10;;;;;;;10.09;87.89;100890.25;10317108;28;20020;-65
2021/10/30 00:29:55;;;;;;;0.10;0.10;;;;;;;10.06;87.63;100893.22;10304387;28;20489;-64
2021/10/30 00:34:56;;;;;;;0.10;0.10;;;;;;;10.00;87.95;100900.00;10330306;28;20041;-65
2021/10/30 00:39:57;;;;;;;0.10;0.10;;;;;;;9.92;88.34;100891.97;10322706;28;20030;-65
2021/10/30 00:44:57;;;;;;;0.05;0.05;;;;;;;9.87;89.01;100896.91;10328760;28;20050;-65
2021/10/30 00:49:58;;;;;;;0.00;0.00;;;;;;;9.81;89.10;100894.84;10315036;28;20026;-65
2021/10/30 00:54:59;;;;;;;0.10;0.10;;;;;;;9.73;88.79;100893.78;10309019;28;20117;-66
2021/10/30 01:00:01;;;;;;;0.10;0.10;;;;;;;9.68;89.51;100897.88;10297323;28;20113;-65
2021/10/30 01:05:01;;;;;;;0.10;0.10;;;;;;;9.63;89.47;100897.47;10324096;28;20438;-65
2021/10/30 01:10:02;;;;;;;0.10;0.10;;;;;;;9.58;89.96;100891.81;10320607;28;20058;-65
2021/10/30 01:15:05;;;;;;;0.10;0.10;;;;;;;9.55;90.55;100900.09;10320491;28;20426;-65
2021/10/30 01:20:06;;;;;;;0.10;0.10;;;;;;;9.56;90.38;100907.06;10306512;28;20097;-65
2021/10/30 01:25:06;;;;;;;0.00;0.00;;;;;;;9.61;89.72;100902.97;10301535;28;20014;-65
2021/10/30 01:30:07;;;;;;;0.00;0.00;;;;;;;9.58;89.68;100915.75;10300519;28;20493;-65
2021/10/30 01:35:07;;;;;;;0.10;0.10;;;;;;;9.51;89.76;100913.69;10328751;28;20026;-65
2021/10/30 01:40:08;;;;;;;0.10;0.10;;;;;;;9.44;90.18;100906.44;10324778;28;20135;-65
2021/10/30 01:45:08;;;;;;;0.00;0.00;;;;;;;9.33;90.46;100902.16;10329201;28;20557;-65
2021/10/30 01:50:12;;;;;;;0.10;0.10;;;;;;;9.26;90.85;100906.41;10351562;28;20035;-65
2021/10/30 01:55:15;;;;;;;0.10;0.10;;;;;;;9.18;91.47;100909.81;10322226;28;20024;-65
2021/10/30 02:00:16;;;;;;;0.10;0.10;;;;;;;9.12;91.29;100905.09;10320034;28;20035;-65
2021/10/30 02:05:17;;;;;;;0.00;0.00;;;;;;;9.11;91.34;100907.91;10326901;28;20273;-65
2021/10/30 02:10:17;;;;;;;0.10;0.10;;;;;;;9.09;91.93;100915.19;10314760;28;20629;-65
2021/10/30 02:15:18;;;;;;;0.00;0.00;;;;;;;9.06;91.98;100906.50;10326413;28;20034;-65
2021/10/30 02:20:19;;;;;;;0.00;0.00;;;;;;;9.05;91.94;100894.22;10349863;28;20030;-64
2021/10/30 02:25:23;;;;;;;0.10;0.10;;;;;;;9.02;92.06;100894.50;10325725;28;20377;-65
2021/10/30 02:30:24;;;;;;;0.00;0.00;;;;;;;8.98;91.77;100881.66;10350664;28;20034;-64
2021/10/30 02:35:24;;;;;;;0.00;0.00;;;;;;;8.87;92.47;100882.69;10324266;28;20401;-65
2021/10/30 02:40:25;;;;;;;0.10;0.10;;;;;;;8.85;93.42;100871.38;10317162;28;20342;-65
2021/10/30 02:45:25;;;;;;;0.10;0.10;;;;;;;8.84;93.05;100864.38;10319815;28;20364;-64
2021/10/30 02:50:25;;;;;;;0.10;0.10;;;;;;;8.86;92.99;100865.06;10317431;28;20022;-64
2021/10/30 02:55:26;;;;;;;0.10;0.10;;;;;;;8.77;92.90;100872.09;10338068;28;20029;-65
2021/10/30 03:00:26;;;;;;;0.05;0.05;;;;;;;8.64;92.98;100881.38;10308170;28;20033;-65
2021/10/30 03:05:26;;;;;;;0.00;0.00;;;;;;;8.52;93.94;100865.66;10305170;28;20026;-65
2021/10/30 03:10:27;;;;;;;0.00;0.00;;;;;;;8.48;94.11;100869.56;10315452;28;20269;-65
2021/10/30 03:15:28;;;;;;;0.10;0.10;;;;;;;8.42;94.37;100862.19;10315097;28;20405;-64
2021/10/30 03:20:28;;;;;;;0.10;0.10;;;;;;;8.33;94.33;100869.16;10321762;28;20203;-65
2021/10/30 03:25:28;;;;;;;0.00;0.00;;;;;;;8.28;95.11;100865.25;10304117;28;20105;-64
2021/10/30 03:30:29;;;;;;;0.00;0.00;;;;;;;8.33;96.04;100863.84;10336335;28;20468;-65
2021/10/30 03:35:29;;;;;;;0.00;0.00;;;;;;;8.48;94.99;100839.53;10305807;28;20113;-65
2021/10/30 03:40:30;;;;;;;0.00;0.00;;;;;;;8.48;94.78;100842.19;10327336;28;20511;-65
2021/10/30 03:45:30;;;;;;;0.10;0.10;;;;;;;8.38;94.50;100835.09;10314190;28;20022;-64
2021/10/30 03:50:31;;;;;;;0.10;0.10;;;;;;;8.31;94.86;100847.22;10293870;28;20023;-65
2021/10/30 03:55:31;;;;;;;0.10;0.10;;;;;;;8.24;95.13;100832.03;10309235;28;20060;-65
2021/10/30 04:00:32;;;;;;;0.10;0.10;;;;;;;8.15;95.06;100837.22;10318754;28;20117;-65
2021/10/30 04:05:33;;;;;;;0.10;0.10;;;;;;;8.11;95.74;100841.13;10306264;28;20073;-65
2021/10/30 04:10:34;;;;;;;0.10;0.10;;;;;;;8.08;95.67;100852.00;10316697;28;20055;-65
2021/10/30 04:15:34;;;;;;;0.10;0.10;;;;;;;8.07;96.13;100850.34;10330398;28;20026;-65
2021/10/30 04:20:34;;;;;;;0.10;0.10;;;;;;;8.11;95.40;100856.19;10331181;28;20547;-64
2021/10/30 04:25:35;;;;;;;0.00;0.00;;;;;;;8.15;95.88;100833.72;10306668;28;20029;-65
2021/10/30 04:30:36;;;;;;;0.00;0.00;;;;;;;8.18;95.51;100837.91;10321004;28;20022;-65
2021/10/30 04:35:39;;;;;;;0.00;0.00;;;;;;;8.15;95.38;100837.22;10304277;28;20557;-65
2021/10/30 04:40:39;;;;;;;0.00;0.00;;;;;;;8.10;95.34;100831.50;10309828;28;20390;-64
2021/10/30 04:45:41;;;;;;;0.10;0.10;;;;;;;8.03;95.47;100822.44;10304161;28;20023;-65
2021/10/30 04:50:41;;;;;;;0.10;0.10;;;;;;;7.95;95.67;100827.63;10324597;28;20389;-65
2021/10/30 04:55:41;;;;;;;0.00;0.00;;;;;;;7.91;96.20;100823.56;10328181;28;20101;-65
2021/10/30 05:00:42;;;;;;;0.00;0.00;;;;;;;7.90;96.79;100833.34;10318633;28;20394;-65
2021/10/30 05:05:42;;;;;;;0.00;0.00;;;;;;;8.01;96.69;100845.63;10309070;28;20045;-65
2021/10/30 05:10:43;;;;;;;0.00;0.00;;;;;;;8.11;96.11;100824.38;10327169;28;20716;-65
2021/10/30 05:15:43;;;;;;;0.07;0.07;;;;;;;8.22;95.10;100823.38;10332783;28;20030;-65
2021/10/30 05:20:43;;;;;;;0.10;0.10;;;;;;;8.22;95.20;100831.34;10312125;28;20274;-65
2021/10/30 05:25:44;;;;;;;0.00;0.00;;;;;;;8.22;95.36;100826.03;10310894;28;20098;-64
2021/10/30 05:30:44;;;;;;;0.00;0.00;;;;;;;8.26;95.30;100827.41;10326965;28;20027;-64
2021/10/30 05:35:44;;;;;;;0.00;0.00;;;;;;;8.38;94.12;100823.63;10361372;23;20404;-69
2021/10/30 05:40:45;;;;;;;0.10;0.10;;;;;;;8.52;92.91;100815.22;10367721;28;20370;-69
2021/10/30 05:45:46;;;;;;;0.00;0.00;;;;;;;8.70;92.27;100811.78;10333745;28;20019;-70
2021/10/30 05:50:47;;;;;;;0.00;0.00;;;;;;;8.74;92.51;100823.78;10332072;28;20022;-69
2021/10/30 05:55:47;;;;;;;0.10;0.10;;;;;;;8.74;92.76;100823.78;10363931;28;20029;-70
2021/10/30 06:00:47;;;;;;;0.00;0.00;;;;;;;8.75;92.73;100817.47;10373512;28;20022;-69
2021/10/30 06:05:48;;;;;;;0.10;0.10;;;;;;;8.71;92.89;100811.63;10347965;28;20018;-69
2021/10/30 06:10:48;;;;;;;0.00;0.00;;;;;;;8.66;92.54;100810.38;10365856;28;20022;-69
2021/10/30 06:15:48;;;;;;;0.00;0.00;;;;;;;8.64;93.52;100809.69;10372716;28;20017;-69
2021/10/30 06:20:49;;;;;;;0.10;0.10;;;;;;;8.62;93.68;100828.44;10358024;28;20277;-69
2021/10/30 06:25:49;;;;;;;0.10;0.10;;;;;;;8.69;92.91;100834.81;10365538;28;20083;-69
2021/10/30 06:30:49;;;;;;;0.00;0.00;;;;;;;8.83;92.10;100830.84;10352430;28;20028;-69
2021/10/30 06:35:50;;;;;;;0.00;0.00;;;;;;;8.96;91.51;100831.34;10367119;28;20021;-69
2021/10/30 06:40:50;;;;;;;0.10;0.10;;;;;;;9.06;91.00;100815.34;10370353;28;20026;-69
2021/10/30 06:45:50;;;;;;;0.10;0.10;;;;;;;9.12;90.60;100833.34;10371970;28;20025;-69
2021/10/30 06:50:53;;;;;;;0.10;0.10;;;;;;;9.13;90.53;100821.72;10369974;28;20022;-69
2021/10/30 06:55:54;;;;;;;0.00;0.00;;;;;;;9.13;90.06;100824.38;10343815;28;20429;-69
2021/10/30 07:00:57;;;;;;;0.03;0.03;;;;;;;9.13;90.53;100842.97;10340877;28;20026;-69
2021/10/30 07:05:57;;;;;;;0.00;0.00;;;;;;;9.12;90.02;100827.19;10370619;28;20041;-69
2021/10/30 07:10:57;;;;;;;0.10;0.10;;;;;;;9.14;90.67;100811.94;10360761;28;20028;-69
2021/10/30 07:15:57;;;;;;;0.10;0.10;;;;;;;9.17;89.75;100801.00;10360976;28;20033;-69
2021/10/30 07:20:58;;;;;;;0.00;0.00;;;;;;;9.23;89.12;100787.94;10361484;28;20026;-70
2021/10/30 07:25:58;;;;;;;0.00;0.00;;;;;;;9.27;89.17;100799.09;10358903;28;20093;-70
2021/10/30 07:30:58;;;;;;;0.00;0.00;;;;;;;9.38;88.90;100782.94;10357742;28;20026;-70
2021/10/30 07:35:59;;;;;;;0.10;0.10;;;;;;;9.55;87.86;100777.78;10341190;28;20287;-69
2021/10/30 07:40:59;;;;;;;0.10;0.10;;;;;;;9.75;87.25;100765.97;10369212;28;20260;-69
2021/10/30 07:46:00;;;;;;;0.00;0.00;;;;;;;10.35;85.52;100779.31;10348141;28;20538;-69
2021/10/30 07:51:01;;;;;;;0.00;0.00;;;;;;;10.69;82.81;100769.66;10367829;28;20087;-69
2021/10/30 07:56:02;;;;;;;0.08;0.08;;;;;;;11.01;80.27;100783.06;10324637;28;20038;-69
2021/10/30 08:01:03;;;;;;;0.10;0.10;;;;;;;11.16;79.87;100785.91;10356325;28;20022;-69
2021/10/30 08:06:03;;;;;;;0.10;0.10;;;;;;;11.49;78.62;100776.16;10368752;28;20018;-69
2021/10/30 08:11:04;;;;;;;0.10;0.10;;;;;;;11.72;77.71;100762.97;10357768;28;20026;-69
2021/10/30 08:16:04;;;;;;;0.00;0.00;;;;;;;11.83;76.84;100756.44;10358960;28;20080;-69
2021/10/30 08:21:05;;;;;;;0.10;0.10;;;;;;;11.59;77.54;100761.81;10355031;28;20112;-69
2021/10/30 08:26:05;;;;;;;0.00;0.00;;;;;;;11.27;78.74;100763.44;10358381;28;20033;-69
2021/10/30 08:31:07;;;;;;;0.10;0.10;;;;;;;11.05;78.97;100762.25;10332963;28;20424;-69
2021/10/30 08:36:08;;;;;;;0.10;0.10;;;;;;;10.94;79.49;100759.88;10351369;28;20481;-69
2021/10/30 08:41:08;;;;;;;0.00;0.00;;;;;;;10.87;80.03;100755.19;10363566;28;20101;-69
2021/10/30 08:46:08;;;;;;;0.10;0.10;;;;;;;10.81;79.84;100747.88;10359266;28;20014;-69
2021/10/30 08:51:09;;;;;;;0.10;0.10;;;;;;;10.76;80.32;100768.84;10364525;28;20395;-69
2021/10/30 08:56:10;;;;;;;0.00;0.00;;;;;;;10.70;80.27;100758.00;10366926;28;20026;-69
2021/10/30 09:01:11;;;;;;;0.10;0.10;;;;;;;10.67;80.58;100750.31;10366866;28;20495;-69
2021/10/30 09:06:11;;;;;;;0.10;0.10;;;;;;;10.69;80.63;100745.66;10366643;28;20014;-69
2021/10/30 09:11:11;;;;;;;0.10;0.10;;;;;;;10.71;80.30;100752.50;10366609;28;20110;-69
2021/10/30 09:16:14;;;;;;;0.10;0.10;;;;;;;10.71;80.72;100747.19;10353442;28;20277;-69
2021/10/30 09:21:15;;;;;;;0.10;0.10;;;;;;;10.70;80.77;100750.81;10348087;28;20304;-70
2021/10/30 09:26:23;;;;;;;0.10;0.10;;;;;;;10.72;81.18;100729.38;10325989;28;20040;-70
2021/10/30 09:31:25;;;;;;;0.10;0.10;;;;;;;10.77;80.21;100730.53;10327677;28;20029;-70
2021/10/30 09:36:30;;;;;;;0.00;0.00;;;;;;;10.87;81.75;100731.22;10327538;28;20034;-70
2021/10/30 09:41:35;;;;;;;0.03;0.03;;;;;;;10.99;81.95;100737.06;10327263;28;20042;-70
2021/10/30 09:46:44;;;;;;;0.10;0.10;;;;;;;11.15;80.40;100727.44;10326417;28;20126;-70
2021/10/30 09:51:47;;;;;;;0.10;0.10;;;;;;;11.32;79.07;100721.13;10342965;28;20037;-70
2021/10/30 09:56:49;;;;;;;0.10;0.10;;;;;;;11.56;77.66;100714.94;10328432;28;20034;-70
2021/10/30 10:01:49;;;;;;;0.10;0.10;;;;;;;11.77;77.49;100709.91;10334237;28;20489;-70
2021/10/30 10:06:50;;;;;;;0.00;0.00;;;;;;;11.96;74.79;100708.75;10332837;28;20112;-70
2021/10/30 10:11:51;;;;;;;0.10;0.10;;;;;;;12.17;72.31;100710.84;10333790;28;20033;-70
2021/10/30 10:16:54;;;;;;;0.00;0.00;;;;;;;12.37;72.24;100705.09;10333838;28;20038;-70
2021/10/30 10:21:54;;;;;;;0.10;0.10;;;;;;;12.59;71.78;100703.47;10332818;28;20018;-70
2021/10/30 10:26:56;;;;;;;0.10;0.10;;;;;;;12.82;73.52;100690.13;10355449;28;20038;-70
2021/10/30 10:31:59;;;;;;;0.10;0.10;;;;;;;12.96;71.82;100673.34;10373535;28;20022;-71
2021/10/30 10:37:11;;;;;;;0.00;0.00;;;;;;;13.09;71.42;100686.13;10373397;28;20486;-70
2021/10/30 10:42:14;;;;;;;0.00;0.00;;;;;;;13.20;72.52;100674.97;10372109;28;20026;-70
2021/10/30 10:47:36;;;;;;;0.10;0.10;;;;;;;13.25;74.26;100666.44;10373126;28;20072;-70
2021/10/30 10:53:06;;;;;;;0.10;0.10;;;;;;;13.27;72.90;100638.53;10354121;28;20473;-70
2021/10/30 10:58:08;;;;;;;0.10;0.10;;;;;;;13.27;71.81;100627.00;10353225;28;20389;-70
2021/10/30 11:03:08;;;;;;;0.10;0.10;;;;;;;13.26;73.16;100619.97;10340947;28;20027;-70
2021/10/30 11:08:09;;;;;;;0.00;0.00;;;;;;;13.24;72.74;100611.28;10331426;28;20097;-70
2021/10/30 11:13:13;;;;;;;0.10;0.10;;;;;;;13.26;72.30;100610.09;10331690;28;20354;-70
2021/10/30 11:23:53;;;;;;;0.10;0.10;;;;;;;13.30;72.80;100584.66;10291016;28;20482;-70
2021/10/30 11:29:08;;;;;;;0.10;0.10;;;;;;;13.35;71.42;100576.06;10290700;28;20019;-71
2021/10/30 11:34:11;;;;;;;0.10;0.10;;;;;;;13.45;70.73;100562.44;10361662;23;20129;-72
2021/10/30 11:39:13;;;;;;;0.10;0.10;;;;;;;13.55;70.37;100553.09;10323460;28;20080;-72
2021/10/30 11:44:16;;;;;;;0.10;0.10;;;;;;;13.59;70.04;100546.38;10325013;28;20035;-72
2021/10/30 11:49:34;;;;;;;0.00;0.00;;;;;;;13.62;70.66;100536.31;10316541;28;20059;-71
2021/10/30 11:54:38;;;;;;;0.10;0.10;;;;;;;13.62;72.04;100534.47;10297720;28;20027;-72
2021/10/30 11:59:41;;;;;;;0.10;0.10;;;;;;;13.55;74.14;100528.19;10307719;28;20346;-71
2021/10/30 12:04:42;;;;;;;0.10;0.10;;;;;;;13.49;74.31;100527.09;10321545;28;20082;-72
2021/10/30 12:09:48;;;;;;;0.10;0.10;;;;;;;13.44;74.49;100517.94;10311343;28;20073;-72
2021/10/30 12:14:50;;;;;;;0.10;0.10;;;;;;;13.42;73.24;100510.13;10300540;28;20022;-72
2021/10/30 12:20:04;;;;;;;0.00;0.00;;;;;;;13.45;72.50;100503.56;10299054;28;20479;-72
2021/10/30 12:25:05;;;;;;;0.10;0.10;;;;;;;13.48;72.73;100497.84;10304003;28;20018;-72
2021/10/30 12:30:09;;;;;;;0.10;0.10;;;;;;;13.50;71.21;100475.25;10308347;28;20139;-71
2021/10/30 12:35:22;;;;;;;0.10;0.10;;;;;;;13.54;71.53;100463.16;10314596;28;20390;-72
2021/10/30 12:40:35;;;;;;;0.10;0.10;;;;;;;13.57;71.31;100460.09;10316112;28;20501;-72
2021/10/30 12:45:40;;;;;;;0.10;0.10;;;;;;;13.57;73.03;100444.03;10308493;28;20049;-72
2021/10/30 12:50:40;;;;;;;0.10;0.10;;;;;;;13.54;72.75;100436.38;10311269;28;20034;-72
2021/10/30 12:55:41;;;;;;;0.10;0.10;;;;;;;13.58;72.30;100445.72;10309110;28;20038;-71
2021/10/30 13:00:42;;;;;;;0.10;0.10;;;;;;;13.63;70.74;100433.59;10316455;28;20496;-71
2021/10/30 13:05:43;;;;;;;0.00;0.00;;;;;;;13.73;69.39;100429.63;10332995;28;20118;-71
2021/10/30 13:10:44;;;;;;;0.10;0.10;;;;;;;13.76;70.01;100431.09;10309504;28;20450;-72
2021/10/30 13:15:44;;;;;;;0.10;0.10;;;;;;;13.76;69.55;100428.41;10300068;28;20018;-71
2021/10/30 13:20:44;;;;;;;0.00;0.00;;;;;;;13.75;71.25;100440.13;10309627;28;20283;-71
2021/10/30 13:25:45;;;;;;;0.10;0.10;;;;;;;13.65;72.68;100437.75;10300055;28;20483;-71
2021/10/30 13:30:45;;;;;;;0.10;0.10;;;;;;;13.54;73.03;100439.06;10317456;28;20258;-71
2021/10/30 13:35:45;;;;;;;0.10;0.10;;;;;;;13.43;74.58;100434.19;10314977;28;20038;-72
2021/10/30 13:40:46;;;;;;;0.10;0.10;;;;;;;13.32;74.14;100422.16;10315010;28;20019;-71
2021/10/30 13:45:46;;;;;;;0.07;0.07;;;;;;;13.26;74.72;100416.69;10317397;28;20019;-72
2021/10/30 13:50:47;;;;;;;0.10;0.10;;;;;;;13.24;74.62;100424.06;10323813;28;20049;-71
2021/10/30 13:55:47;;;;;;;0.10;0.10;;;;;;;13.20;75.02;100420.09;10310058;28;20022;-71
2021/10/30 14:00:47;;;;;;;0.10;0.10;;;;;;;13.18;75.62;100435.47;10327726;28;20015;-71
2021/10/30 14:05:48;;;;;;;0.10;0.10;;;;;;;13.16;78.57;100426.84;10311469;28;20030;-71
2021/10/30 14:10:48;;;;;;;0.10;0.10;;;;;;;13.13;79.71;100431.53;10309536;28;20106;-72
2021/10/30 14:15:48;;;;;;;0.10;0.10;;;;;;;13.10;80.69;100441.78;10308673;28;20025;-74
2021/10/30 14:20:49;;;;;;;0.10;0.10;;;;;;;13.04;81.96;100439.84;10305585;28;20760;-72
2021/10/30 14:25:50;;;;;;;0.00;0.00;;;;;;;12.95;82.17;100440.94;10325522;28;20101;-71
2021/10/30 14:30:50;;;;;;;0.05;0.05;;;;;;;12.87;80.48;100436.50;10315115;28;20114;-71
2021/10/30 14:35:52;;;;;;;0.00;0.00;;;;;;;12.83;80.04;100436.06;10307475;28;20038;-71
2021/10/30 14:40:53;;;;;;;0.10;0.10;;;;;;;12.82;80.36;100434.38;10314855;28;20041;-71
2021/10/30 14:45:54;;;;;;;0.00;0.00;;;;;;;12.78;80.51;100429.59;10304801;28;20453;-72
2021/10/30 14:50:54;;;;;;;0.10;0.10;;;;;;;12.68;81.85;100422.69;10311631;28;20331;-71
2021/10/30 14:55:56;;;;;;;0.10;0.10;;;;;;;12.59;82.41;100421.06;10328134;28;20477;-72
2021/10/30 15:00:56;;;;;;;0.10;0.10;;;;;;;12.54;80.34;100426.16;10320673;28;20027;-70
2021/10/30 15:05:56;;;;;;;0.10;0.10;;;;;;;12.59;80.12;100425.59;10306873;28;20022;-70
2021/10/30 15:10:57;;;;;;;0.10;0.10;;;;;;;12.58;79.86;100424.78;10308724;28;20025;-74
2021/10/30 15:15:57;;;;;;;0.10;0.10;;;;;;;12.49;80.86;100441.91;10311465;28;20030;-73
2021/10/30 15:20:57;;;;;;;0.03;0.03;;;;;;;12.37;80.95;100441.50;10313427;28;20058;-71
2021/10/30 15:25:58;;;;;;;0.05;0.05;;;;;;;12.30;81.27;100439.72;10321668;28;20019;-69
2021/10/30 15:30:59;;;;;;;0.10;0.10;;;;;;;12.18;82.12;100432.13;10316262;28;20510;-69
2021/10/30 15:36:02;;;;;;;0.10;0.10;;;;;;;12.16;80.86;100425.34;10309724;28;20037;-70
2021/10/30 15:41:06;;;;;;;0.10;0.10;;;;;;;12.14;80.67;100416.66;10307540;28;20023;-70
2021/10/30 15:46:06;;;;;;;0.10;0.10;;;;;;;12.10;80.61;100421.53;10305583;28;20077;-69
2021/10/30 15:51:07;;;;;;;0.10;0.10;;;;;;;12.05;80.92;100407.88;10335298;28;20477;-69
2021/10/30 15:56:07;;;;;;;0.10;0.10;;;;;;;12.01;80.29;100406.56;10325062;28;20018;-70
2021/10/30 16:01:08;;;;;;;0.10;0.10;;;;;;;11.96;80.23;100404.44;10314449;28;20278;-70
2021/10/30 16:06:09;;;;;;;0.10;0.10;;;;;;;11.92;80.40;100411.13;10312219;28;20704;-69
2021/10/30 16:11:09;;;;;;;0.10;0.10;;;;;;;11.85;81.20;100402.19;10305172;28;20018;-70
2021/10/30 16:16:10;;;;;;;0.10;0.10;;;;;;;11.81;80.54;100405.34;10303947;28;20032;-70
2021/10/30 16:21:11;;;;;;;0.10;0.10;;;;;;;11.82;80.93;100405.19;10303815;28;20026;-70
2021/10/30 16:26:13;;;;;;;0.10;0.10;;;;;;;11.79;80.34;100393.03;10308431;28;20019;-70
2021/10/30 16:31:17;;;;;;;0.10;0.10;;;;;;;11.73;80.81;100391.06;10311789;28;20090;-70
2021/10/30 16:36:18;;;;;;;0.10;0.10;;;;;;;11.72;80.74;100376.09;10307379;28;20126;-70
2021/10/30 16:41:18;;;;;;;0.10;0.10;;;;;;;11.70;81.22;100374.59;10311100;28;20102;-70
2021/10/30 16:46:18;;;;;;;0.00;0.00;;;;;;;11.65;81.27;100368.94;10300294;28;20491;-69
2021/10/30 16:51:19;;;;;;;0.10;0.10;;;;;;;11.56;82.49;100362.84;10312212;28;20031;-70
2021/10/30 16:56:19;;;;;;;0.10;0.10;;;;;;;11.45;82.48;100355.25;10312879;28;20027;-70
2021/10/30 17:01:20;;;;;;;0.10;0.10;;;;;;;11.40;83.33;100349.59;10318881;28;20265;-69
2021/10/30 17:06:20;;;;;;;0.10;0.10;;;;;;;11.33;83.78;100344.16;10308230;28;20027;-70
2021/10/30 17:11:20;;;;;;;0.10;0.10;;;;;;;11.28;83.48;100355.31;10314154;28;20026;-69
2021/10/30 17:16:22;;;;;;;0.10;0.10;;;;;;;11.25;83.58;100353.00;10313721;28;20037;-69
2021/10/30 17:21:24;;;;;;;0.10;0.10;;;;;;;11.30;81.75;100348.00;10308325;28;20029;-69
2021/10/30 17:26:25;;;;;;;0.10;0.10;;;;;;;11.36;81.35;100349.13;10302197;28;20026;-69
2021/10/30 17:31:25;;;;;;;0.10;0.10;;;;;;;11.47;79.46;100361.25;10318545;28;20033;-69
2021/10/30 17:36:25;;;;;;;0.10;0.10;;;;;;;11.56;79.44;100361.00;10326414;22;20104;-66
2021/10/30 17:41:26;;;;;;;0.10;0.10;;;;;;;11.62;78.93;100359.47;10329644;28;20038;-67
2021/10/30 17:46:26;;;;;;;0.10;0.10;;;;;;;11.68;78.57;100364.09;10332096;28;20357;-66
2021/10/30 17:51:26;;;;;;;0.10;0.10;;;;;;;11.78;77.80;100369.19;10333015;28;20495;-66
2021/10/30 17:56:27;;;;;;;0.10;0.10;;;;;;;11.88;77.13;100377.81;10333220;28;20945;-67
2021/10/30 18:01:27;;;;;;;0.10;0.10;;;;;;;11.91;77.43;100381.97;10332476;28;20031;-66
2021/10/30 18:06:27;;;;;;;0.10;0.10;;;;;;;11.82;77.30;100377.69;10324219;28;20577;-65
2021/10/30 18:11:28;;;;;;;0.10;0.10;;;;;;;11.79;77.67;100385.03;10331057;28;20026;-66
2021/10/30 18:16:28;;;;;;;0.10;0.10;;;;;;;11.70;79.17;100396.75;10331566;28;20365;-65
2021/10/30 18:21:29;;;;;;;0.10;0.10;;;;;;;11.59;79.14;100389.16;10331275;28;20121;-66
2021/10/30 18:26:29;;;;;;;0.10;0.10;;;;;;;11.49;79.88;100396.53;10332122;28;20021;-67
2021/10/30 18:31:29;;;;;;;0.10;0.10;;;;;;;11.41;79.98;100392.09;10331230;28;20023;-66
2021/10/30 18:36:30;;;;;;;0.10;0.10;;;;;;;11.37;80.02;100395.28;10331430;28;21460;-66
2021/10/30 18:41:31;;;;;;;0.10;0.10;;;;;;;11.38;79.80;100402.28;10330629;28;20270;-67
2021/10/30 18:46:32;;;;;;;0.00;0.00;;;;;;;11.36;79.79;100402.47;10331406;28;20050;-67
2021/10/30 18:51:32;;;;;;;0.10;0.10;;;;;;;11.31;79.89;100396.81;10331397;28;20065;-67
2021/10/30 18:56:32;;;;;;;0.10;0.10;;;;;;;11.31;80.48;100405.66;10329570;28;20024;-67
2021/10/30 19:01:33;;;;;;;0.10;0.10;;;;;;;11.31;80.43;100395.00;10330404;28;20022;-66
2021/10/30 19:06:33;;;;;;;0.10;0.10;;;;;;;11.29;80.63;100393.50;10330721;28;20018;-66
2021/10/30 19:11:34;;;;;;;0.00;0.00;;;;;;;11.28;81.05;100394.50;10329728;28;20022;-66
2021/10/30 19:16:34;;;;;;;0.00;0.00;;;;;;;11.24;81.33;100395.84;10331112;28;20015;-65
2021/10/30 19:21:34;;;;;;;0.00;0.00;;;;;;;11.22;81.45;100390.69;10330013;28;20028;-65
2021/10/30 19:26:35;;;;;;;0.10;0.10;;;;;;;11.18;81.96;100391.22;10329058;28;20037;-66
2021/10/30 19:31:40;;;;;;;0.10;0.10;;;;;;;11.16;82.72;100396.72;10328931;28;20433;-67
2021/10/30 19:36:40;;;;;;;;;;;;;;;11.14;81.97;100400.56;10329568;28;20022;-66
2021/10/30 19:41:44;;;;;;;0.10;0.10;;;;;;;11.16;82.55;100395.88;10328410;28;19993;-66
2021/10/30 19:46:46;;;;;;;0.10;0.10;;;;;;;11.19;82.57;100398.22;10328915;28;20018;-66
2021/10/30 19:51:46;;;;;;;0.00;0.00;;;;;;;11.18;83.35;100405.38;10328302;28;20037;-66
2021/10/30 19:56:46;;;;;;;0.00;0.00;;;;;;;11.16;83.52;100399.38;10328454;28;20021;-65
2021/10/30 20:01:47;;;;;;;0.10;0.10;;;;;;;11.20;82.90;100392.72;10328302;28;20269;-66
2021/10/30 20:06:48;;;;;;;0.10;0.10;;;;;;;11.23;83.08;100397.69;10327783;28;20073;-67
2021/10/30 20:11:48;;;;;;;0.10;0.10;;;;;;;11.22;83.31;100395.19;10326326;28;20031;-66
2021/10/30 20:16:50;;;;;;;0.10;0.10;;;;;;;11.23;83.41;100397.69;10328062;28;20241;-66
2021/10/30 20:21:50;;;;;;;0.10;0.10;;;;;;;11.21;84.10;100405.03;10327815;28;20417;-66
2021/10/30 20:26:51;;;;;;;0.10;0.10;;;;;;;11.17;84.22;100408.19;10327846;28;20077;-67
2021/10/30 20:31:52;;;;;;;0.10;0.10;;;;;;;11.16;84.59;100403.88;10327544;28;20034;-66
2021/10/30 20:36:55;;;;;;;0.10;0.10;;;;;;;11.17;85.02;100414.38;10327681;28;20018;-66
2021/10/30 20:41:59;;;;;;;0.10;0.10;;;;;;;11.16;85.18;100411.88;10328585;28;20029;-66
2021/10/30 20:47:00;;;;;;;0.10;0.10;;;;;;;11.17;85.08;100419.72;10325839;28;20021;-67
2021/10/30 20:52:00;;;;;;;0.10;0.10;;;;;;;11.17;86.03;100424.19;10326330;28;20462;-66
2021/10/30 20:57:01;;;;;;;0.10;0.10;;;;;;;11.14;87.48;100424.53;10327139;28;20026;-65
2021/10/30 21:02:02;;;;;;;0.00;0.00;;;;;;;11.06;87.86;100422.75;10326960;28;20397;-66
2021/10/30 21:07:02;;;;;;;0.10;0.10;;;;;;;11.03;87.75;100439.09;10325919;28;20462;-67
2021/10/30 21:12:03;;;;;;;0.10;0.10;;;;;;;10.99;89.02;100438.59;10332989;28;20022;-66
2021/10/30 21:17:03;;;;;;;0.10;0.10;;;;;;;10.97;89.53;100442.44;10327590;28;20045;-65
2021/10/30 21:22:03;;;;;;;0.10;0.10;;;;;;;10.93;89.88;100443.78;10327271;28;20027;-64
2021/10/30 21:27:04;;;;;;;0.10;0.10;;;;;;;10.88;90.80;100444.31;10327755;28;20026;-66
2021/10/30 21:32:05;;;;;;;0.10;0.10;;;;;;;10.83;91.67;100457.28;10314140;28;20276;-64
2021/10/30 21:37:05;;;;;;;0.10;0.10;;;;;;;10.75;92.68;100457.31;10320929;28;20362;-65
2021/10/30 21:42:06;;;;;;;0.10;0.10;;;;;;;10.68;92.82;100465.16;10325691;28;20441;-65
2021/10/30 21:47:07;;;;;;;0.10;0.10;;;;;;;10.63;93.64;100476.28;10326254;28;20632;-65
2021/10/30 21:52:07;;;;;;;0.10;0.10;;;;;;;10.58;94.43;100473.28;10327617;28;20022;-65
2021/10/30 21:57:07;;;;;;;0.10;0.10;;;;;;;10.55;94.69;100480.78;10334163;28;20026;-65
2021/10/30 22:02:08;;;;;;;0.10;0.10;;;;;;;10.52;94.79;100481.13;10333050;28;20031;-65
2021/10/30 22:07:11;;;;;;;0.10;0.10;;;;;;;10.49;95.54;100486.78;10332779;28;20554;-65
2021/10/30 22:12:13;;;;;;;0.10;0.10;;;;;;;10.49;96.11;100495.59;10329994;28;20684;-66
2021/10/30 22:17:13;;;;;;;0.10;0.10;;;;;;;10.48;96.64;100496.63;10332997;28;20061;-66
2021/10/30 22:22:13;;;;;;;0.00;0.00;;;;;;;10.47;96.93;100496.78;10332201;28;20057;-66
2021/10/30 22:27:14;;;;;;;0.10;0.10;;;;;;;10.48;96.68;100509.09;10332233;28;20268;-65
2021/10/30 22:32:14;;;;;;;0.03;0.03;;;;;;;10.46;97.05;100519.09;10331637;28;20025;-66
2021/10/30 22:37:15;;;;;;;0.10;0.10;;;;;;;10.46;97.14;100529.72;10323121;28;20037;-65
2021/10/30 22:42:17;;;;;;;0.10;0.10;;;;;;;10.47;97.48;100540.22;10331583;28;20022;-66
2021/10/30 22:47:18;;;;;;;0.10;0.10;;;;;;;10.49;98.19;100540.88;10329953;28;20041;-66
2021/10/30 22:52:19;;;;;;;0.10;0.10;;;;;;;10.48;99.34;100546.38;10329399;28;20025;-66
2021/10/30 22:57:19;;;;;;;0.03;0.03;;;;;;;10.46;99.87;100537.72;10330803;28;20499;-66
2021/10/30 23:02:19;;;;;;;0.10;0.10;;;;;;;10.47;100.00;100539.38;10330678;28;20036;-65
2021/10/30 23:07:20;;;;;;;0.10;0.10;;;;;;;10.46;99.96;100549.19;10329651;28;20022;-66
2021/10/30 23:12:20;;;;;;;0.10;0.10;;;;;;;10.48;100.00;100562.38;10330780;28;20036;-66
2021/10/30 23:17:20;;;;;;;0.10;0.10;;;;;;;10.50;100.00;100555.03;10328644;28;20038;-66